sensor_id;sensor_type;location;lat;lon;timestamp;P1;durP1;ratioP1;P2;durP2;ratioP2
4084;SDS011;2057;50.858;6.572;2023-01-19T00:01:53;8.67;;;5.83;;
4084;SDS011;2057;50.858;6.572;2023-01-19T00:04:18;9.10;;;4.50;;
4084;SDS011;2057;50.858;6.572;2023-01-19T00:06:44;7.50;;;5.17;;
4084;SDS011;2057;50.858;6.572;2023-01-19T00:09:09;15.20;;;6.93;;
4084;SDS011;2057;50.858;6.572;2023-01-19T00:11:38;13.52;;;6.47;;
4084;SDS011;2057;50.858;6.572;2023-01-19T00:14:04;10.27;;;6.25;;
4084;SDS011;2057;50.858;6.572;2023-01-19T00:16:29;11.40;;;6.30;;
4084;SDS011;2057;50.858;6.572;2023-01-19T00:18:54;7.67;;;5.60;;
4084;SDS011;2057;50.858;6.572;2023-01-19T00:21:20;9.03;;;5.77;;
4084;SDS011;2057;50.858;6.572;2023-01-19T00:23:48;9.75;;;6.75;;
4084;SDS011;2057;50.858;6.572;2023-01-19T00:26:16;11.02;;;5.60;;
4084;SDS011;2057;50.858;6.572;2023-01-19T00:28:43;10.13;;;5.40;;
4084;SDS011;2057;50.858;6.572;2023-01-19T00:31:09;13.02;;;6.07;;
4084;SDS011;2057;50.858;6.572;2023-01-19T00:33:34;9.37;;;5.87;;
4084;SDS011;2057;50.858;6.572;2023-01-19T00:36:00;7.67;;;4.90;;
4084;SDS011;2057;50.858;6.572;2023-01-19T00:38:25;8.80;;;5.27;;
4084;SDS011;2057;50.858;6.572;2023-01-19T00:40:51;10.67;;;5.57;;
4084;SDS011;2057;50.858;6.572;2023-01-19T00:43:16;9.80;;;6.80;;
4084;SDS011;2057;50.858;6.572;2023-01-19T00:45:42;9.87;;;6.00;;
4084;SDS011;2057;50.858;6.572;2023-01-19T00:48:07;8.30;;;6.53;;
4084;SDS011;2057;50.858;6.572;2023-01-19T00:50:32;8.60;;;5.40;;
4084;SDS011;2057;50.858;6.572;2023-01-19T00:52:58;12.93;;;6.40;;
4084;SDS011;2057;50.858;6.572;2023-01-19T00:55:27;15.82;;;6.70;;
4084;SDS011;2057;50.858;6.572;2023-01-19T00:57:54;9.07;;;4.88;;
4084;SDS011;2057;50.858;6.572;2023-01-19T01:00:20;8.77;;;5.37;;
4084;SDS011;2057;50.858;6.572;2023-01-19T01:02:46;10.50;;;6.00;;
4084;SDS011;2057;50.858;6.572;2023-01-19T01:05:14;9.23;;;5.15;;
4084;SDS011;2057;50.858;6.572;2023-01-19T01:07:40;10.13;;;5.75;;
4084;SDS011;2057;50.858;6.572;2023-01-19T01:12:48;16.10;;;6.10;;
4084;SDS011;2057;50.858;6.572;2023-01-19T01:15:14;9.20;;;5.22;;
4084;SDS011;2057;50.858;6.572;2023-01-19T01:17:40;12.38;;;5.95;;
4084;SDS011;2057;50.858;6.572;2023-01-19T01:20:32;10.75;;;6.10;;
4084;SDS011;2057;50.858;6.572;2023-01-19T01:22:58;9.73;;;5.72;;
4084;SDS011;2057;50.858;6.572;2023-01-19T01:25:24;9.97;;;5.17;;
4084;SDS011;2057;50.858;6.572;2023-01-19T01:27:52;9.07;;;5.80;;
4084;SDS011;2057;50.858;6.572;2023-01-19T01:30:19;11.45;;;5.50;;
4084;SDS011;2057;50.858;6.572;2023-01-19T01:32:44;10.37;;;5.57;;
4084;SDS011;2057;50.858;6.572;2023-01-19T01:35:10;13.73;;;5.33;;
4084;SDS011;2057;50.858;6.572;2023-01-19T01:37:36;8.85;;;5.82;;
4084;SDS011;2057;50.858;6.572;2023-01-19T01:40:03;13.05;;;6.25;;
4084;SDS011;2057;50.858;6.572;2023-01-19T01:42:30;12.73;;;5.88;;
4084;SDS011;2057;50.858;6.572;2023-01-19T01:44:57;10.82;;;7.05;;
4084;SDS011;2057;50.858;6.572;2023-01-19T01:47:30;11.90;;;5.95;;
4084;SDS011;2057;50.858;6.572;2023-01-19T01:52:47;10.98;;;5.55;;
4084;SDS011;2057;50.858;6.572;2023-01-19T01:55:15;12.05;;;5.97;;
4084;SDS011;2057;50.858;6.572;2023-01-19T01:57:45;15.30;;;5.63;;
4084;SDS011;2057;50.858;6.572;2023-01-19T02:00:15;7.18;;;5.90;;
4084;SDS011;2057;50.858;6.572;2023-01-19T02:02:41;6.40;;;5.10;;
4084;SDS011;2057;50.858;6.572;2023-01-19T02:05:25;14.60;;;6.13;;
4084;SDS011;2057;50.858;6.572;2023-01-19T02:10:45;8.68;;;6.05;;
4084;SDS011;2057;50.858;6.572;2023-01-19T02:13:30;10.13;;;5.75;;
4084;SDS011;2057;50.858;6.572;2023-01-19T02:16:00;15.32;;;6.78;;
4084;SDS011;2057;50.858;6.572;2023-01-19T02:18:28;18.85;;;6.88;;
4084;SDS011;2057;50.858;6.572;2023-01-19T02:21:00;16.42;;;5.80;;
4084;SDS011;2057;50.858;6.572;2023-01-19T02:26:21;22.42;;;7.15;;
4084;SDS011;2057;50.858;6.572;2023-01-19T02:28:53;19.17;;;6.85;;
4084;SDS011;2057;50.858;6.572;2023-01-19T02:31:24;11.70;;;6.50;;
4084;SDS011;2057;50.858;6.572;2023-01-19T02:33:51;11.05;;;6.45;;
4084;SDS011;2057;50.858;6.572;2023-01-19T02:36:18;11.43;;;5.00;;
4084;SDS011;2057;50.858;6.572;2023-01-19T02:38:46;7.85;;;5.72;;
4084;SDS011;2057;50.858;6.572;2023-01-19T02:41:16;10.45;;;6.97;;
4084;SDS011;2057;50.858;6.572;2023-01-19T02:43:45;14.10;;;6.00;;
4084;SDS011;2057;50.858;6.572;2023-01-19T02:46:13;9.95;;;6.65;;
4084;SDS011;2057;50.858;6.572;2023-01-19T02:48:39;9.77;;;6.00;;
4084;SDS011;2057;50.858;6.572;2023-01-19T02:51:15;14.83;;;6.90;;
4084;SDS011;2057;50.858;6.572;2023-01-19T02:59:16;10.32;;;5.75;;
4084;SDS011;2057;50.858;6.572;2023-01-19T03:16:57;9.38;;;5.05;;
4084;SDS011;2057;50.858;6.572;2023-01-19T03:21:48;9.38;;;5.55;;
4084;SDS011;2057;50.858;6.572;2023-01-19T03:24:19;6.75;;;5.20;;
4084;SDS011;2057;50.858;6.572;2023-01-19T03:26:51;9.55;;;5.35;;
4084;SDS011;2057;50.858;6.572;2023-01-19T03:29:23;11.27;;;5.35;;
4084;SDS011;2057;50.858;6.572;2023-01-19T03:31:50;7.80;;;4.63;;
4084;SDS011;2057;50.858;6.572;2023-01-19T03:34:17;9.05;;;5.53;;
4084;SDS011;2057;50.858;6.572;2023-01-19T03:36:48;8.30;;;5.13;;
4084;SDS011;2057;50.858;6.572;2023-01-19T03:39:20;12.10;;;4.50;;
4084;SDS011;2057;50.858;6.572;2023-01-19T03:41:47;9.48;;;5.97;;
4084;SDS011;2057;50.858;6.572;2023-01-19T03:44:17;8.20;;;4.45;;
4084;SDS011;2057;50.858;6.572;2023-01-19T03:46:43;11.50;;;4.57;;
4084;SDS011;2057;50.858;6.572;2023-01-19T03:49:10;13.02;;;5.78;;
4084;SDS011;2057;50.858;6.572;2023-01-19T03:51:36;14.20;;;4.97;;
4084;SDS011;2057;50.858;6.572;2023-01-19T03:54:03;17.77;;;5.10;;
4084;SDS011;2057;50.858;6.572;2023-01-19T03:56:29;9.75;;;4.93;;
4084;SDS011;2057;50.858;6.572;2023-01-19T03:58:55;11.80;;;5.10;;
4084;SDS011;2057;50.858;6.572;2023-01-19T04:01:20;16.50;;;6.30;;
4084;SDS011;2057;50.858;6.572;2023-01-19T04:03:49;14.30;;;6.15;;
4084;SDS011;2057;50.858;6.572;2023-01-19T04:06:15;10.68;;;5.75;;
4084;SDS011;2057;50.858;6.572;2023-01-19T04:08:41;8.98;;;5.63;;
4084;SDS011;2057;50.858;6.572;2023-01-19T04:11:06;9.33;;;4.37;;
4084;SDS011;2057;50.858;6.572;2023-01-19T04:13:32;15.93;;;6.77;;
4084;SDS011;2057;50.858;6.572;2023-01-19T04:16:00;8.23;;;5.65;;
4084;SDS011;2057;50.858;6.572;2023-01-19T04:18:27;11.35;;;5.03;;
4084;SDS011;2057;50.858;6.572;2023-01-19T04:20:53;13.27;;;5.68;;
4084;SDS011;2057;50.858;6.572;2023-01-19T04:23:19;9.30;;;5.30;;
4084;SDS011;2057;50.858;6.572;2023-01-19T04:25:45;8.97;;;5.77;;
4084;SDS011;2057;50.858;6.572;2023-01-19T04:28:10;21.43;;;7.83;;
4084;SDS011;2057;50.858;6.572;2023-01-19T04:30:36;17.00;;;7.33;;
4084;SDS011;2057;50.858;6.572;2023-01-19T04:33:01;15.43;;;6.37;;
4084;SDS011;2057;50.858;6.572;2023-01-19T04:35:27;12.13;;;6.10;;
4084;SDS011;2057;50.858;6.572;2023-01-19T04:37:52;14.60;;;5.90;;
4084;SDS011;2057;50.858;6.572;2023-01-19T04:40:18;13.80;;;5.70;;
4084;SDS011;2057;50.858;6.572;2023-01-19T04:42:43;10.73;;;6.53;;
4084;SDS011;2057;50.858;6.572;2023-01-19T04:45:10;18.75;;;6.55;;
4084;SDS011;2057;50.858;6.572;2023-01-19T04:47:37;15.93;;;6.20;;
4084;SDS011;2057;50.858;6.572;2023-01-19T04:50:02;12.17;;;6.20;;
4084;SDS011;2057;50.858;6.572;2023-01-19T04:52:32;14.82;;;6.13;;
4084;SDS011;2057;50.858;6.572;2023-01-19T04:55:01;23.63;;;7.20;;
4084;SDS011;2057;50.858;6.572;2023-01-19T04:57:28;16.02;;;6.10;;
4084;SDS011;2057;50.858;6.572;2023-01-19T04:59:54;14.75;;;7.20;;
4084;SDS011;2057;50.858;6.572;2023-01-19T05:02:23;33.47;;;7.97;;
4084;SDS011;2057;50.858;6.572;2023-01-19T05:04:48;13.70;;;7.10;;
4084;SDS011;2057;50.858;6.572;2023-01-19T05:07:14;20.43;;;7.47;;
4084;SDS011;2057;50.858;6.572;2023-01-19T05:09:39;22.40;;;8.57;;
4084;SDS011;2057;50.858;6.572;2023-01-19T05:12:05;18.33;;;7.93;;
4084;SDS011;2057;50.858;6.572;2023-01-19T05:14:30;14.73;;;7.20;;
4084;SDS011;2057;50.858;6.572;2023-01-19T05:16:56;16.93;;;8.60;;
4084;SDS011;2057;50.858;6.572;2023-01-19T05:19:21;12.30;;;7.33;;
4084;SDS011;2057;50.858;6.572;2023-01-19T05:21:47;15.13;;;8.60;;
4084;SDS011;2057;50.858;6.572;2023-01-19T05:24:12;22.10;;;8.00;;
4084;SDS011;2057;50.858;6.572;2023-01-19T05:26:38;13.93;;;8.13;;
4084;SDS011;2057;50.858;6.572;2023-01-19T05:29:03;17.63;;;9.20;;
4084;SDS011;2057;50.858;6.572;2023-01-19T05:31:31;21.88;;;8.60;;
4084;SDS011;2057;50.858;6.572;2023-01-19T05:33:59;19.10;;;8.50;;
4084;SDS011;2057;50.858;6.572;2023-01-19T05:36:25;23.40;;;10.90;;
4084;SDS011;2057;50.858;6.572;2023-01-19T05:38:51;22.77;;;9.70;;
4084;SDS011;2057;50.858;6.572;2023-01-19T05:41:16;20.63;;;10.10;;
4084;SDS011;2057;50.858;6.572;2023-01-19T05:43:41;22.40;;;9.87;;
4084;SDS011;2057;50.858;6.572;2023-01-19T05:46:07;19.90;;;11.73;;
4084;SDS011;2057;50.858;6.572;2023-01-19T05:48:32;21.03;;;10.30;;
4084;SDS011;2057;50.858;6.572;2023-01-19T05:50:58;29.23;;;9.70;;
4084;SDS011;2057;50.858;6.572;2023-01-19T05:53:24;22.13;;;10.23;;
4084;SDS011;2057;50.858;6.572;2023-01-19T05:55:49;18.63;;;12.77;;
4084;SDS011;2057;50.858;6.572;2023-01-19T05:58:15;24.67;;;11.00;;
4084;SDS011;2057;50.858;6.572;2023-01-19T06:00:40;26.17;;;12.27;;
4084;SDS011;2057;50.858;6.572;2023-01-19T06:03:06;27.30;;;12.67;;
4084;SDS011;2057;50.858;6.572;2023-01-19T06:05:31;30.63;;;12.40;;
4084;SDS011;2057;50.858;6.572;2023-01-19T06:07:57;27.43;;;12.83;;
4084;SDS011;2057;50.858;6.572;2023-01-19T06:10:22;24.33;;;13.53;;
4084;SDS011;2057;50.858;6.572;2023-01-19T06:12:47;24.93;;;14.00;;
4084;SDS011;2057;50.858;6.572;2023-01-19T06:15:13;34.70;;;14.20;;
4084;SDS011;2057;50.858;6.572;2023-01-19T06:17:39;31.42;;;13.30;;
4084;SDS011;2057;50.858;6.572;2023-01-19T06:20:07;42.42;;;14.85;;
4084;SDS011;2057;50.858;6.572;2023-01-19T06:22:35;32.60;;;15.88;;
4084;SDS011;2057;50.858;6.572;2023-01-19T06:25:00;28.63;;;15.50;;
4084;SDS011;2057;50.858;6.572;2023-01-19T06:27:25;41.83;;;14.57;;
4084;SDS011;2057;50.858;6.572;2023-01-19T06:29:51;30.00;;;14.70;;
4084;SDS011;2057;50.858;6.572;2023-01-19T06:32:16;28.60;;;16.30;;
4084;SDS011;2057;50.858;6.572;2023-01-19T06:34:41;30.13;;;13.73;;
4084;SDS011;2057;50.858;6.572;2023-01-19T06:37:08;30.50;;;14.65;;
4084;SDS011;2057;50.858;6.572;2023-01-19T06:39:35;24.90;;;14.38;;
4084;SDS011;2057;50.858;6.572;2023-01-19T06:42:02;34.15;;;14.40;;
4084;SDS011;2057;50.858;6.572;2023-01-19T06:44:27;22.17;;;12.67;;
4084;SDS011;2057;50.858;6.572;2023-01-19T06:46:53;31.73;;;16.37;;
4084;SDS011;2057;50.858;6.572;2023-01-19T06:49:18;24.93;;;13.40;;
4084;SDS011;2057;50.858;6.572;2023-01-19T06:51:43;27.23;;;14.67;;
4084;SDS011;2057;50.858;6.572;2023-01-19T06:54:09;24.87;;;14.17;;
4084;SDS011;2057;50.858;6.572;2023-01-19T06:56:34;35.20;;;16.10;;
4084;SDS011;2057;50.858;6.572;2023-01-19T06:59:01;39.05;;;16.05;;
4084;SDS011;2057;50.858;6.572;2023-01-19T07:01:27;28.60;;;15.93;;
4084;SDS011;2057;50.858;6.572;2023-01-19T07:03:52;31.00;;;15.40;;
4084;SDS011;2057;50.858;6.572;2023-01-19T07:06:17;35.17;;;16.87;;
4084;SDS011;2057;50.858;6.572;2023-01-19T07:08:43;35.43;;;17.50;;
4084;SDS011;2057;50.858;6.572;2023-01-19T07:11:09;38.77;;;16.90;;
4084;SDS011;2057;50.858;6.572;2023-01-19T07:13:37;36.72;;;17.42;;
4084;SDS011;2057;50.858;6.572;2023-01-19T07:16:04;30.20;;;17.27;;
4084;SDS011;2057;50.858;6.572;2023-01-19T07:18:30;36.00;;;17.25;;
4084;SDS011;2057;50.858;6.572;2023-01-19T07:20:56;37.43;;;17.20;;
4084;SDS011;2057;50.858;6.572;2023-01-19T07:23:22;43.87;;;16.90;;
4084;SDS011;2057;50.858;6.572;2023-01-19T07:25:47;30.53;;;15.43;;
4084;SDS011;2057;50.858;6.572;2023-01-19T07:28:13;30.10;;;15.20;;
4084;SDS011;2057;50.858;6.572;2023-01-19T07:30:40;33.30;;;18.48;;
4084;SDS011;2057;50.858;6.572;2023-01-19T07:33:06;38.75;;;19.55;;
4084;SDS011;2057;50.858;6.572;2023-01-19T07:35:32;31.57;;;16.60;;
4084;SDS011;2057;50.858;6.572;2023-01-19T07:37:57;39.57;;;18.17;;
4084;SDS011;2057;50.858;6.572;2023-01-19T07:40:23;29.33;;;15.43;;
4084;SDS011;2057;50.858;6.572;2023-01-19T07:42:49;51.57;;;18.23;;
4084;SDS011;2057;50.858;6.572;2023-01-19T07:45:17;37.00;;;16.15;;
4084;SDS011;2057;50.858;6.572;2023-01-19T07:47:44;35.92;;;16.00;;
4084;SDS011;2057;50.858;6.572;2023-01-19T07:50:14;30.00;;;16.15;;
4084;SDS011;2057;50.858;6.572;2023-01-19T07:52:41;38.33;;;17.83;;
4084;SDS011;2057;50.858;6.572;2023-01-19T07:55:07;32.50;;;17.70;;
4084;SDS011;2057;50.858;6.572;2023-01-19T07:57:33;34.17;;;18.00;;
4084;SDS011;2057;50.858;6.572;2023-01-19T07:59:59;43.10;;;16.70;;
4084;SDS011;2057;50.858;6.572;2023-01-19T08:02:25;32.90;;;14.33;;
4084;SDS011;2057;50.858;6.572;2023-01-19T08:04:50;30.20;;;14.33;;
4084;SDS011;2057;50.858;6.572;2023-01-19T08:07:16;31.97;;;16.17;;
4084;SDS011;2057;50.858;6.572;2023-01-19T08:09:41;28.60;;;18.73;;
4084;SDS011;2057;50.858;6.572;2023-01-19T08:12:07;24.00;;;14.80;;
4084;SDS011;2057;50.858;6.572;2023-01-19T08:14:32;35.47;;;15.43;;
4084;SDS011;2057;50.858;6.572;2023-01-19T08:17:01;36.60;;;16.63;;
4084;SDS011;2057;50.858;6.572;2023-01-19T08:19:28;28.45;;;14.77;;
4084;SDS011;2057;50.858;6.572;2023-01-19T08:21:53;32.30;;;16.47;;
4084;SDS011;2057;50.858;6.572;2023-01-19T08:24:20;31.13;;;14.52;;
4084;SDS011;2057;50.858;6.572;2023-01-19T08:26:47;29.85;;;15.52;;
4084;SDS011;2057;50.858;6.572;2023-01-19T08:29:15;44.73;;;15.77;;
4084;SDS011;2057;50.858;6.572;2023-01-19T08:31:41;38.38;;;16.27;;
4084;SDS011;2057;50.858;6.572;2023-01-19T08:34:06;33.90;;;16.50;;
4084;SDS011;2057;50.858;6.572;2023-01-19T08:36:32;39.20;;;17.00;;
4084;SDS011;2057;50.858;6.572;2023-01-19T08:38:58;39.90;;;20.00;;
4084;SDS011;2057;50.858;6.572;2023-01-19T08:41:24;43.00;;;16.70;;
4084;SDS011;2057;50.858;6.572;2023-01-19T08:43:52;39.97;;;20.77;;
4084;SDS011;2057;50.858;6.572;2023-01-19T08:46:17;54.53;;;23.70;;
4084;SDS011;2057;50.858;6.572;2023-01-19T08:48:45;75.63;;;27.77;;
4084;SDS011;2057;50.858;6.572;2023-01-19T08:51:13;48.55;;;18.27;;
4084;SDS011;2057;50.858;6.572;2023-01-19T08:53:42;45.25;;;19.20;;
4084;SDS011;2057;50.858;6.572;2023-01-19T08:56:08;42.33;;;18.97;;
4084;SDS011;2057;50.858;6.572;2023-01-19T08:58:37;44.60;;;18.67;;
4084;SDS011;2057;50.858;6.572;2023-01-19T09:01:04;35.33;;;16.52;;
4084;SDS011;2057;50.858;6.572;2023-01-19T09:03:30;40.42;;;19.48;;
4084;SDS011;2057;50.858;6.572;2023-01-19T09:05:55;47.53;;;20.57;;
4084;SDS011;2057;50.858;6.572;2023-01-19T09:08:21;37.50;;;18.83;;
4084;SDS011;2057;50.858;6.572;2023-01-19T09:10:47;48.67;;;17.27;;
4084;SDS011;2057;50.858;6.572;2023-01-19T09:13:15;39.17;;;19.02;;
4084;SDS011;2057;50.858;6.572;2023-01-19T09:15:41;45.67;;;20.80;;
4084;SDS011;2057;50.858;6.572;2023-01-19T09:18:08;33.58;;;17.38;;
4084;SDS011;2057;50.858;6.572;2023-01-19T09:20:37;40.78;;;21.42;;
4084;SDS011;2057;50.858;6.572;2023-01-19T09:23:04;40.85;;;19.92;;
4084;SDS011;2057;50.858;6.572;2023-01-19T09:25:30;53.33;;;20.23;;
4084;SDS011;2057;50.858;6.572;2023-01-19T09:27:58;65.75;;;18.75;;
4084;SDS011;2057;50.858;6.572;2023-01-19T09:30:23;49.85;;;18.55;;
4084;SDS011;2057;50.858;6.572;2023-01-19T09:32:51;48.75;;;20.88;;
4084;SDS011;2057;50.858;6.572;2023-01-19T09:35:17;57.40;;;22.43;;
4084;SDS011;2057;50.858;6.572;2023-01-19T09:37:45;55.47;;;22.80;;
4084;SDS011;2057;50.858;6.572;2023-01-19T09:40:11;48.05;;;20.42;;
4084;SDS011;2057;50.858;6.572;2023-01-19T09:42:42;45.42;;;21.42;;
4084;SDS011;2057;50.858;6.572;2023-01-19T09:45:17;58.95;;;20.15;;
4084;SDS011;2057;50.858;6.572;2023-01-19T09:47:46;55.53;;;20.77;;
4084;SDS011;2057;50.858;6.572;2023-01-19T09:50:19;44.97;;;20.23;;
4084;SDS011;2057;50.858;6.572;2023-01-19T09:52:55;47.70;;;20.88;;
4084;SDS011;2057;50.858;6.572;2023-01-19T09:55:25;42.45;;;20.02;;
4084;SDS011;2057;50.858;6.572;2023-01-19T09:57:51;57.05;;;20.95;;
4084;SDS011;2057;50.858;6.572;2023-01-19T10:00:17;60.10;;;21.33;;
4084;SDS011;2057;50.858;6.572;2023-01-19T10:02:48;45.78;;;19.23;;
4084;SDS011;2057;50.858;6.572;2023-01-19T10:05:24;53.55;;;24.23;;
4084;SDS011;2057;50.858;6.572;2023-01-19T10:08:04;73.53;;;23.92;;
4084;SDS011;2057;50.858;6.572;2023-01-19T10:10:52;37.15;;;19.20;;
4084;SDS011;2057;50.858;6.572;2023-01-19T10:19:11;43.80;;;20.40;;
4084;SDS011;2057;50.858;6.572;2023-01-19T10:21:41;52.35;;;21.15;;
4084;SDS011;2057;50.858;6.572;2023-01-19T10:26:54;42.13;;;19.58;;
4084;SDS011;2057;50.858;6.572;2023-01-19T10:29:27;46.92;;;20.17;;
4084;SDS011;2057;50.858;6.572;2023-01-19T10:32:19;64.13;;;22.00;;
4084;SDS011;2057;50.858;6.572;2023-01-19T10:34:48;44.60;;;20.10;;
4084;SDS011;2057;50.858;6.572;2023-01-19T10:39:53;37.40;;;19.65;;
4084;SDS011;2057;50.858;6.572;2023-01-19T10:42:21;41.38;;;20.42;;
4084;SDS011;2057;50.858;6.572;2023-01-19T10:44:46;53.90;;;20.30;;
4084;SDS011;2057;50.858;6.572;2023-01-19T10:47:18;40.30;;;18.95;;
4084;SDS011;2057;50.858;6.572;2023-01-19T10:49:45;47.47;;;19.58;;
4084;SDS011;2057;50.858;6.572;2023-01-19T10:52:32;76.35;;;20.15;;
4084;SDS011;2057;50.858;6.572;2023-01-19T10:55:04;34.67;;;19.23;;
4084;SDS011;2057;50.858;6.572;2023-01-19T10:57:33;52.42;;;21.35;;
4084;SDS011;2057;50.858;6.572;2023-01-19T11:00:00;54.13;;;20.58;;
4084;SDS011;2057;50.858;6.572;2023-01-19T11:02:28;72.88;;;21.17;;
4084;SDS011;2057;50.858;6.572;2023-01-19T11:04:55;41.65;;;17.98;;
4084;SDS011;2057;50.858;6.572;2023-01-19T11:12:40;42.30;;;20.83;;
4084;SDS011;2057;50.858;6.572;2023-01-19T11:15:19;49.10;;;18.25;;
4084;SDS011;2057;50.858;6.572;2023-01-19T11:17:48;56.97;;;19.48;;
4084;SDS011;2057;50.858;6.572;2023-01-19T11:20:18;53.83;;;20.60;;
4084;SDS011;2057;50.858;6.572;2023-01-19T11:23:14;49.17;;;19.88;;
4084;SDS011;2057;50.858;6.572;2023-01-19T11:25:44;35.60;;;18.70;;
4084;SDS011;2057;50.858;6.572;2023-01-19T11:28:19;46.92;;;18.90;;
4084;SDS011;2057;50.858;6.572;2023-01-19T11:30:58;48.45;;;18.63;;
4084;SDS011;2057;50.858;6.572;2023-01-19T11:33:50;46.53;;;19.00;;
4084;SDS011;2057;50.858;6.572;2023-01-19T11:36:18;51.78;;;17.77;;
4084;SDS011;2057;50.858;6.572;2023-01-19T11:38:45;58.45;;;20.17;;
4084;SDS011;2057;50.858;6.572;2023-01-19T11:41:17;65.47;;;20.45;;
4084;SDS011;2057;50.858;6.572;2023-01-19T11:44:19;59.35;;;21.77;;
4084;SDS011;2057;50.858;6.572;2023-01-19T11:46:49;54.00;;;20.13;;
4084;SDS011;2057;50.858;6.572;2023-01-19T11:52:01;55.40;;;23.92;;
4084;SDS011;2057;50.858;6.572;2023-01-19T11:54:35;61.83;;;21.00;;
4084;SDS011;2057;50.858;6.572;2023-01-19T11:57:14;59.45;;;22.60;;
4084;SDS011;2057;50.858;6.572;2023-01-19T11:59:41;50.42;;;19.85;;
4084;SDS011;2057;50.858;6.572;2023-01-19T12:02:15;55.00;;;21.23;;
4084;SDS011;2057;50.858;6.572;2023-01-19T12:04:45;49.35;;;18.50;;
4084;SDS011;2057;50.858;6.572;2023-01-19T12:07:13;53.78;;;20.10;;
4084;SDS011;2057;50.858;6.572;2023-01-19T12:09:45;55.92;;;19.85;;
4084;SDS011;2057;50.858;6.572;2023-01-19T12:17:32;43.63;;;18.75;;
4084;SDS011;2057;50.858;6.572;2023-01-19T12:22:47;37.25;;;17.15;;
4084;SDS011;2057;50.858;6.572;2023-01-19T12:25:22;35.70;;;19.63;;
4084;SDS011;2057;50.858;6.572;2023-01-19T12:27:53;57.08;;;19.85;;
4084;SDS011;2057;50.858;6.572;2023-01-19T12:30:20;41.92;;;17.05;;
4084;SDS011;2057;50.858;6.572;2023-01-19T12:32:48;46.95;;;19.15;;
4084;SDS011;2057;50.858;6.572;2023-01-19T12:38:22;46.33;;;19.95;;
4084;SDS011;2057;50.858;6.572;2023-01-19T12:44:35;26.27;;;15.30;;
4084;SDS011;2057;50.858;6.572;2023-01-19T12:46:40;49.40;;;17.50;;
4084;SDS011;2057;50.858;6.572;2023-01-19T12:54:53;34.97;;;16.67;;
4084;SDS011;2057;50.858;6.572;2023-01-19T12:59:56;35.58;;;18.13;;
4084;SDS011;2057;50.858;6.572;2023-01-19T13:08:11;30.83;;;13.60;;
4084;SDS011;2057;50.858;6.572;2023-01-19T13:15:58;28.85;;;14.98;;
4084;SDS011;2057;50.858;6.572;2023-01-19T13:21:37;26.60;;;13.73;;
4084;SDS011;2057;50.858;6.572;2023-01-19T13:24:20;27.30;;;13.07;;
4084;SDS011;2057;50.858;6.572;2023-01-19T13:31:50;30.95;;;15.75;;
4084;SDS011;2057;50.858;6.572;2023-01-19T13:34:26;19.65;;;10.88;;
4084;SDS011;2057;50.858;6.572;2023-01-19T13:36:54;25.90;;;12.57;;
4084;SDS011;2057;50.858;6.572;2023-01-19T13:39:31;29.67;;;13.15;;
4084;SDS011;2057;50.858;6.572;2023-01-19T13:42:03;34.08;;;12.98;;
4084;SDS011;2057;50.858;6.572;2023-01-19T13:47:12;37.40;;;15.88;;
4084;SDS011;2057;50.858;6.572;2023-01-19T13:49:44;25.17;;;13.90;;
4084;SDS011;2057;50.858;6.572;2023-01-19T13:54:47;32.87;;;12.00;;
4084;SDS011;2057;50.858;6.572;2023-01-19T13:57:20;24.33;;;11.10;;
4084;SDS011;2057;50.858;6.572;2023-01-19T14:05:38;17.40;;;10.70;;
4084;SDS011;2057;50.858;6.572;2023-01-19T14:10:32;29.40;;;11.90;;
4084;SDS011;2057;50.858;6.572;2023-01-19T14:12:59;29.45;;;10.70;;
4084;SDS011;2057;50.858;6.572;2023-01-19T14:15:26;25.42;;;10.82;;
4084;SDS011;2057;50.858;6.572;2023-01-19T14:20:40;29.10;;;10.20;;
4084;SDS011;2057;50.858;6.572;2023-01-19T14:34:45;35.00;;;8.68;;
4084;SDS011;2057;50.858;6.572;2023-01-19T14:39:46;17.50;;;9.55;;
4084;SDS011;2057;50.858;6.572;2023-01-19T14:42:15;21.92;;;9.13;;
4084;SDS011;2057;50.858;6.572;2023-01-19T14:44:46;21.17;;;9.82;;
4084;SDS011;2057;50.858;6.572;2023-01-19T14:47:52;22.70;;;9.60;;
4084;SDS011;2057;50.858;6.572;2023-01-19T14:50:16;19.05;;;9.93;;
4084;SDS011;2057;50.858;6.572;2023-01-19T14:52:50;22.85;;;9.55;;
4084;SDS011;2057;50.858;6.572;2023-01-19T14:55:20;20.80;;;8.63;;
4084;SDS011;2057;50.858;6.572;2023-01-19T14:57:49;13.05;;;8.25;;
4084;SDS011;2057;50.858;6.572;2023-01-19T15:00:15;28.13;;;9.87;;
4084;SDS011;2057;50.858;6.572;2023-01-19T15:02:45;23.88;;;10.80;;
4084;SDS011;2057;50.858;6.572;2023-01-19T15:05:11;18.60;;;9.90;;
4084;SDS011;2057;50.858;6.572;2023-01-19T15:07:38;15.15;;;8.63;;
4084;SDS011;2057;50.858;6.572;2023-01-19T15:10:14;16.08;;;8.45;;
4084;SDS011;2057;50.858;6.572;2023-01-19T15:12:43;18.08;;;9.07;;
4084;SDS011;2057;50.858;6.572;2023-01-19T15:15:15;20.48;;;10.05;;
4084;SDS011;2057;50.858;6.572;2023-01-19T15:17:43;16.13;;;8.93;;
4084;SDS011;2057;50.858;6.572;2023-01-19T15:20:16;28.25;;;10.30;;
4084;SDS011;2057;50.858;6.572;2023-01-19T15:22:43;28.98;;;13.90;;
4084;SDS011;2057;50.858;6.572;2023-01-19T15:25:11;22.03;;;12.50;;
4084;SDS011;2057;50.858;6.572;2023-01-19T15:27:37;20.00;;;9.48;;
4084;SDS011;2057;50.858;6.572;2023-01-19T15:30:11;21.85;;;8.70;;
4084;SDS011;2057;50.858;6.572;2023-01-19T15:32:38;25.02;;;9.15;;
4084;SDS011;2057;50.858;6.572;2023-01-19T15:37:46;19.95;;;9.35;;
4084;SDS011;2057;50.858;6.572;2023-01-19T15:40:12;19.95;;;9.05;;
4084;SDS011;2057;50.858;6.572;2023-01-19T15:42:39;15.15;;;7.78;;
4084;SDS011;2057;50.858;6.572;2023-01-19T15:47:55;19.40;;;8.02;;
4084;SDS011;2057;50.858;6.572;2023-01-19T15:50:21;13.93;;;7.30;;
4084;SDS011;2057;50.858;6.572;2023-01-19T15:52:46;22.60;;;10.07;;
4084;SDS011;2057;50.858;6.572;2023-01-19T15:55:11;17.97;;;9.10;;
4084;SDS011;2057;50.858;6.572;2023-01-19T15:57:39;13.70;;;7.00;;
4084;SDS011;2057;50.858;6.572;2023-01-19T16:00:05;13.30;;;6.70;;
4084;SDS011;2057;50.858;6.572;2023-01-19T16:02:31;15.80;;;7.72;;
4084;SDS011;2057;50.858;6.572;2023-01-19T16:04:59;24.77;;;9.02;;
4084;SDS011;2057;50.858;6.572;2023-01-19T16:07:26;9.85;;;6.57;;
4084;SDS011;2057;50.858;6.572;2023-01-19T16:09:54;17.97;;;7.97;;
4084;SDS011;2057;50.858;6.572;2023-01-19T16:12:19;21.30;;;9.82;;
4084;SDS011;2057;50.858;6.572;2023-01-19T16:14:45;50.80;;;22.47;;
4084;SDS011;2057;50.858;6.572;2023-01-19T16:17:10;18.40;;;8.87;;
4084;SDS011;2057;50.858;6.572;2023-01-19T16:19:35;17.40;;;8.37;;
4084;SDS011;2057;50.858;6.572;2023-01-19T16:22:01;28.80;;;11.17;;
4084;SDS011;2057;50.858;6.572;2023-01-19T16:24:27;41.67;;;18.80;;
4084;SDS011;2057;50.858;6.572;2023-01-19T16:26:52;23.27;;;10.00;;
4084;SDS011;2057;50.858;6.572;2023-01-19T16:29:18;21.43;;;9.00;;
4084;SDS011;2057;50.858;6.572;2023-01-19T16:31:43;27.03;;;10.80;;
4084;SDS011;2057;50.858;6.572;2023-01-19T16:34:09;10.57;;;6.10;;
4084;SDS011;2057;50.858;6.572;2023-01-19T16:36:36;18.23;;;8.97;;
4084;SDS011;2057;50.858;6.572;2023-01-19T16:39:05;16.08;;;6.80;;
4084;SDS011;2057;50.858;6.572;2023-01-19T16:41:33;24.98;;;12.20;;
4084;SDS011;2057;50.858;6.572;2023-01-19T16:43:58;26.77;;;9.63;;
4084;SDS011;2057;50.858;6.572;2023-01-19T16:46:28;27.13;;;14.20;;
4084;SDS011;2057;50.858;6.572;2023-01-19T16:49:06;41.05;;;15.05;;
4084;SDS011;2057;50.858;6.572;2023-01-19T16:51:38;23.88;;;12.43;;
4084;SDS011;2057;50.858;6.572;2023-01-19T16:54:04;21.53;;;10.93;;
4084;SDS011;2057;50.858;6.572;2023-01-19T16:56:30;18.60;;;8.90;;
4084;SDS011;2057;50.858;6.572;2023-01-19T16:58:56;26.33;;;10.93;;
4084;SDS011;2057;50.858;6.572;2023-01-19T17:01:22;24.98;;;9.25;;
4084;SDS011;2057;50.858;6.572;2023-01-19T17:03:49;28.55;;;8.52;;
4084;SDS011;2057;50.858;6.572;2023-01-19T17:06:18;16.85;;;6.90;;
4084;SDS011;2057;50.858;6.572;2023-01-19T17:08:46;20.05;;;8.70;;
4084;SDS011;2057;50.858;6.572;2023-01-19T17:11:13;22.33;;;11.43;;
4084;SDS011;2057;50.858;6.572;2023-01-19T17:13:55;18.27;;;8.75;;